createdAt,value
2023-03-24T00:01:25.637Z,2.97
2023-03-24T00:03:55.436Z,2.90
2023-03-24T00:06:26.857Z,2.50
2023-03-24T00:08:55.418Z,2.90
2023-03-24T00:11:25.468Z,2.85
2023-03-24T00:13:54.304Z,3.70
2023-03-24T00:16:22.705Z,3.60
2023-03-24T00:18:53.533Z,3.30
2023-03-24T00:21:25.997Z,3.50
2023-03-24T00:23:55.978Z,4.07
2023-03-24T00:26:25.778Z,4.40
2023-03-24T00:28:57.178Z,4.53
2023-03-24T00:31:26.221Z,4.90
2023-03-24T00:33:55.496Z,4.40
2023-03-24T00:36:27.010Z,4.80
2023-03-24T00:38:55.961Z,4.40
2023-03-24T00:41:27.068Z,5.00
2023-03-24T00:43:58.373Z,5.03
2023-03-24T00:46:30.882Z,5.20
2023-03-24T00:49:03.521Z,5.93
2023-03-24T00:51:37.315Z,5.13
2023-03-24T00:54:06.449Z,5.43
2023-03-24T00:56:43.014Z,4.57
2023-03-24T00:59:13.998Z,5.28
2023-03-24T01:01:43.499Z,4.80
2023-03-24T01:04:12.189Z,4.63
2023-03-24T01:06:42.166Z,4.53
2023-03-24T01:09:10.780Z,4.63
2023-03-24T01:11:41.656Z,4.15
2023-03-24T01:14:11.436Z,4.53
2023-03-24T01:16:40.449Z,3.90
2023-03-24T01:19:10.512Z,4.03
2023-03-24T01:21:40.125Z,4.20
2023-03-24T01:24:10.715Z,4.03
2023-03-24T01:26:39.204Z,4.40
2023-03-24T01:29:08.124Z,4.20
2023-03-24T01:31:36.835Z,4.38
2023-03-24T01:34:05.447Z,4.18
2023-03-24T01:36:33.718Z,4.03
2023-03-24T01:39:02.101Z,3.50
2023-03-24T01:41:35.591Z,3.47
2023-03-24T01:44:19.029Z,3.65
2023-03-24T01:46:49.340Z,3.30
2023-03-24T01:49:19.302Z,3.63
2023-03-24T01:51:51.168Z,3.35
2023-03-24T01:54:22.136Z,3.30
2023-03-24T01:56:59.211Z,3.47
2023-03-24T01:59:33.174Z,3.65
2023-03-24T02:02:03.997Z,3.58
2023-03-24T02:04:41.244Z,3.28
2023-03-24T02:07:15.518Z,3.40
2023-03-24T02:09:44.690Z,3.00
2023-03-24T02:12:14.732Z,2.90
2023-03-24T02:14:43.350Z,3.30
2023-03-24T02:17:24.686Z,3.20
2023-03-24T02:20:29.928Z,2.58
2023-03-24T02:23:28.307Z,2.80
2023-03-24T02:26:38.265Z,3.13
2023-03-24T02:29:29.876Z,2.85
2023-03-24T02:32:31.289Z,2.92
2023-03-24T02:35:32.675Z,3.03
2023-03-24T02:38:45.853Z,2.78
2023-03-24T02:41:25.106Z,3.25
2023-03-24T02:44:01.886Z,3.28
2023-03-24T02:46:39.745Z,2.80
2023-03-24T02:49:18.284Z,2.90
2023-03-24T02:51:53.837Z,2.85
2023-03-24T02:54:28.975Z,2.60
2023-03-24T02:57:04.253Z,3.35
2023-03-24T02:59:38.424Z,2.90
2023-03-24T03:02:10.465Z,2.85
2023-03-24T03:04:46.559Z,2.78
2023-03-24T03:07:17.008Z,2.97
2023-03-24T03:09:51.171Z,3.17
2023-03-24T03:12:24.470Z,3.85
2023-03-24T03:14:56.258Z,3.17
2023-03-24T03:17:30.595Z,2.90
2023-03-24T03:20:08.549Z,3.38
2023-03-24T03:22:43.439Z,3.13
2023-03-24T03:25:14.506Z,3.35
2023-03-24T03:27:47.029Z,2.88
2023-03-24T03:30:19.679Z,3.15
2023-03-24T03:32:54.571Z,2.97
2023-03-24T03:35:27.963Z,3.38
2023-03-24T03:38:04.411Z,3.40
2023-03-24T03:40:36.324Z,3.30
2023-03-24T03:43:06.912Z,2.53
2023-03-24T03:45:36.098Z,3.13
2023-03-24T03:48:04.948Z,2.92
2023-03-24T03:50:34.233Z,3.08
2023-03-24T03:53:02.782Z,3.05
2023-03-24T03:55:32.566Z,2.95
2023-03-24T03:58:01.574Z,3.20
2023-03-24T04:00:32.136Z,3.00
2023-03-24T04:03:18.549Z,3.22
2023-03-24T04:05:54.248Z,3.60
2023-03-24T04:08:28.879Z,3.13
2023-03-24T04:11:33.450Z,3.90
2023-03-24T04:14:15.568Z,3.40
2023-03-24T04:16:54.356Z,3.78
2023-03-24T04:19:34.618Z,3.88
2023-03-24T04:22:17.941Z,3.83
2023-03-24T04:24:54.695Z,3.63
2023-03-24T04:27:28.795Z,3.97
2023-03-24T04:30:07.425Z,3.63
2023-03-24T04:32:43.651Z,3.70
2023-03-24T04:35:22.552Z,3.83
2023-03-24T04:37:52.377Z,4.47
2023-03-24T04:40:22.864Z,4.32
2023-03-24T04:42:57.549Z,4.72
2023-03-24T04:45:26.649Z,4.68
2023-03-24T04:47:59.820Z,4.65
2023-03-24T04:50:31.470Z,4.78
2023-03-24T04:53:00.552Z,4.22
2023-03-24T04:56:03.036Z,4.45
2023-03-24T04:58:31.494Z,5.00
2023-03-24T05:01:00.256Z,4.70
2023-03-24T05:03:29.889Z,4.45
2023-03-24T05:05:59.212Z,4.93
2023-03-24T05:08:27.488Z,5.03
2023-03-24T05:10:55.907Z,4.38
2023-03-24T05:13:24.745Z,4.15
2023-03-24T05:15:56.338Z,4.57
2023-03-24T05:18:24.726Z,4.35
2023-03-24T05:20:54.964Z,4.70
2023-03-24T05:23:23.374Z,4.85
2023-03-24T05:25:52.268Z,4.18
2023-03-24T05:28:20.798Z,4.30
2023-03-24T05:30:49.749Z,3.95
2023-03-24T05:33:18.113Z,4.20
2023-03-24T05:35:46.539Z,4.40
2023-03-24T05:38:16.899Z,4.13
2023-03-24T05:40:45.354Z,4.82
2023-03-24T05:43:13.567Z,4.60
2023-03-24T05:45:41.865Z,3.92
2023-03-24T05:48:10.219Z,3.75
2023-03-24T05:50:38.439Z,4.78
2023-03-24T05:53:07.107Z,4.50
2023-03-24T05:55:37.303Z,4.60
2023-03-24T05:58:05.986Z,4.57
2023-03-24T06:00:35.016Z,4.45
2023-03-24T06:03:06.109Z,5.03
2023-03-24T06:05:34.597Z,4.78
2023-03-24T06:08:04.063Z,5.28
2023-03-24T06:10:32.360Z,4.93
2023-03-24T06:13:01.946Z,6.05
2023-03-24T06:15:30.896Z,6.65
2023-03-24T06:18:01.077Z,6.00
2023-03-24T06:20:29.603Z,5.63
2023-03-24T06:23:00.051Z,6.40
2023-03-24T06:25:36.264Z,5.70
2023-03-24T06:28:07.049Z,6.10
2023-03-24T06:30:37.097Z,5.60
2023-03-24T06:33:08.134Z,5.38
2023-03-24T06:35:37.246Z,5.82
2023-03-24T06:38:05.681Z,5.45
2023-03-24T06:40:37.032Z,5.35
2023-03-24T06:43:07.123Z,5.85
2023-03-24T06:45:35.406Z,5.38
2023-03-24T06:48:03.723Z,5.15
2023-03-24T06:50:35.442Z,5.53
2023-03-24T06:53:03.885Z,5.72
2023-03-24T06:55:32.526Z,5.30
2023-03-24T06:58:01.273Z,5.80
2023-03-24T07:00:34.759Z,5.47
2023-03-24T07:03:03.165Z,5.75
2023-03-24T07:05:32.753Z,5.63
2023-03-24T07:10:33.840Z,5.50
2023-03-24T07:13:03.290Z,5.30
2023-03-24T07:15:33.143Z,4.50
2023-03-24T07:18:01.843Z,5.40
2023-03-24T07:20:30.539Z,5.78
2023-03-24T07:22:59.046Z,5.70
2023-03-24T07:25:27.948Z,5.80
2023-03-24T07:27:57.264Z,5.88
2023-03-24T07:30:37.330Z,4.82
2023-03-24T07:33:12.096Z,4.15
2023-03-24T07:35:41.179Z,4.80
2023-03-24T07:38:10.192Z,3.33
2023-03-24T07:40:38.639Z,1.92
2023-03-24T07:43:07.230Z,1.48
2023-03-24T07:45:35.760Z,1.50
2023-03-24T07:48:05.764Z,1.90
2023-03-24T07:50:35.881Z,1.70
2023-03-24T07:53:04.395Z,1.50
2023-03-24T07:55:32.777Z,1.60
2023-03-24T07:58:01.515Z,2.00
2023-03-24T08:00:34.448Z,1.85
2023-03-24T08:03:04.548Z,1.80
2023-03-24T08:05:33.282Z,1.80
2023-03-24T08:08:06.279Z,1.90
2023-03-24T08:10:35.378Z,2.10
2023-03-24T08:13:10.204Z,3.30
2023-03-24T08:15:39.935Z,1.77
2023-03-24T08:18:10.034Z,2.00
2023-03-24T08:20:39.220Z,2.45
2023-03-24T08:23:09.948Z,1.80
2023-03-24T08:25:38.779Z,2.00
2023-03-24T08:28:11.046Z,1.80
2023-03-24T08:30:43.722Z,1.60
2023-03-24T08:33:14.599Z,1.50
2023-03-24T08:35:45.738Z,2.08
2023-03-24T08:38:19.021Z,1.50
2023-03-24T08:40:51.996Z,1.10
2023-03-24T08:43:23.519Z,1.20
2023-03-24T08:45:52.400Z,1.30
2023-03-24T08:48:21.681Z,1.05
2023-03-24T08:50:50.427Z,1.15
2023-03-24T08:53:20.908Z,1.30
2023-03-24T08:55:51.489Z,1.50
2023-03-24T08:58:21.880Z,1.25
2023-03-24T09:00:50.737Z,1.10
2023-03-24T09:03:22.717Z,0.93
2023-03-24T09:05:51.652Z,0.90
2023-03-24T09:08:21.710Z,0.90
2023-03-24T09:10:51.501Z,1.38
2023-03-24T09:13:21.545Z,1.20
2023-03-24T09:15:52.322Z,0.88
2023-03-24T09:18:22.499Z,0.93
2023-03-24T09:20:51.941Z,0.90
2023-03-24T09:23:22.708Z,1.10
2023-03-24T09:25:51.369Z,0.98
2023-03-24T09:28:20.122Z,0.73
2023-03-24T09:30:49.465Z,1.00
2023-03-24T09:33:18.087Z,1.05
2023-03-24T09:35:46.420Z,0.90
2023-03-24T09:38:14.694Z,1.10
2023-03-24T09:40:44.325Z,0.70
2023-03-24T09:43:22.492Z,0.85
2023-03-24T09:45:53.886Z,1.08
2023-03-24T09:48:32.739Z,0.80
2023-03-24T09:51:05.349Z,0.80
2023-03-24T09:53:38.879Z,1.17
2023-03-24T09:56:14.788Z,1.10
2023-03-24T09:58:44.840Z,1.08
2023-03-24T10:01:17.209Z,0.85
2023-03-24T10:03:46.831Z,1.02
2023-03-24T10:06:29.908Z,0.95
2023-03-24T10:09:10.505Z,1.30
2023-03-24T10:11:46.117Z,0.98
2023-03-24T10:14:28.667Z,0.73
2023-03-24T10:17:04.528Z,1.50
2023-03-24T10:19:41.466Z,0.88
2023-03-24T10:22:18.430Z,0.90
2023-03-24T10:24:52.414Z,1.00
2023-03-24T10:27:29.646Z,1.00
2023-03-24T10:30:04.545Z,1.13
2023-03-24T10:32:36.773Z,1.27
2023-03-24T10:35:10.192Z,1.20
2023-03-24T10:37:39.373Z,0.95
2023-03-24T10:40:18.063Z,1.00
2023-03-24T10:42:49.914Z,1.00
2023-03-24T10:45:38.113Z,1.20
2023-03-24T10:48:07.537Z,1.08
2023-03-24T10:50:38.179Z,1.27
2023-03-24T10:53:10.878Z,1.08
2023-03-24T10:55:44.504Z,1.33
2023-03-24T10:58:21.017Z,1.00
2023-03-24T11:00:50.298Z,1.02
2023-03-24T11:03:31.007Z,0.73
2023-03-24T11:06:02.157Z,0.95
2023-03-24T11:08:36.149Z,0.80
2023-03-24T11:11:16.166Z,0.85
2023-03-24T11:13:56.859Z,1.15
2023-03-24T11:16:30.878Z,0.90
2023-03-24T11:19:01.692Z,0.90
2023-03-24T11:21:31.680Z,1.10
2023-03-24T11:24:02.363Z,0.90
2023-03-24T11:26:35.008Z,1.00
2023-03-24T11:29:09.970Z,1.25
2023-03-24T11:31:40.425Z,0.95
2023-03-24T11:34:13.885Z,1.30
2023-03-24T11:36:47.380Z,1.10
2023-03-24T11:39:20.289Z,1.10
2023-03-24T11:42:14.021Z,1.17
2023-03-24T11:44:50.547Z,1.20
2023-03-24T11:47:24.491Z,1.25
2023-03-24T11:50:02.041Z,1.30
2023-03-24T11:52:34.679Z,1.10
2023-03-24T11:55:04.649Z,1.38
2023-03-24T11:57:47.259Z,1.63
2023-03-24T12:00:23.106Z,1.50
2023-03-24T12:03:13.742Z,1.42
2023-03-24T12:05:44.144Z,1.50
2023-03-24T12:08:38.795Z,1.55
2023-03-24T12:11:13.366Z,1.65
2023-03-24T12:13:44.142Z,1.63
2023-03-24T12:16:29.918Z,2.05
2023-03-24T12:19:32.999Z,1.80
2023-03-24T12:22:12.664Z,1.52
2023-03-24T12:24:53.037Z,1.50
2023-03-24T12:27:30.042Z,1.70
2023-03-24T12:30:05.591Z,2.10
2023-03-24T12:32:48.426Z,1.58
2023-03-24T12:35:32.213Z,1.50
2023-03-24T12:38:13.172Z,1.63
2023-03-24T12:40:58.253Z,1.35
2023-03-24T12:43:37.463Z,1.67
2023-03-24T12:46:12.420Z,1.45
2023-03-24T12:48:58.216Z,1.45
2023-03-24T12:51:42.728Z,1.95
2023-03-24T12:54:24.618Z,1.90
2023-03-24T12:56:57.262Z,1.50
2023-03-24T12:59:32.926Z,1.50
2023-03-24T13:02:09.607Z,1.77
2023-03-24T13:04:43.769Z,1.92
2023-03-24T13:07:14.842Z,1.55
2023-03-24T13:09:53.265Z,1.90
2023-03-24T13:12:23.605Z,1.75
2023-03-24T13:14:59.503Z,1.95
2023-03-24T13:17:32.139Z,1.70
2023-03-24T13:20:07.055Z,1.88
2023-03-24T13:22:38.973Z,1.73
2023-03-24T13:25:18.978Z,2.10
2023-03-24T13:27:50.897Z,2.08
2023-03-24T13:30:33.390Z,1.92
2023-03-24T13:33:07.587Z,1.65
2023-03-24T13:35:53.366Z,1.70
2023-03-24T13:38:28.233Z,2.20
2023-03-24T13:40:57.842Z,1.60
2023-03-24T13:43:30.237Z,2.00
2023-03-24T13:46:03.137Z,1.58
2023-03-24T13:48:36.526Z,1.75
2023-03-24T13:51:18.303Z,2.15
2023-03-24T13:53:53.258Z,1.70
2023-03-24T13:56:28.886Z,1.90
2023-03-24T13:59:26.802Z,1.65
2023-03-24T14:02:42.338Z,1.75
2023-03-24T14:05:12.454Z,1.80
2023-03-24T14:07:49.004Z,2.05
2023-03-24T14:10:53.855Z,1.75
2023-03-24T14:13:40.208Z,2.10
2023-03-24T14:16:44.062Z,1.88
2023-03-24T14:19:27.199Z,2.03
2023-03-24T14:22:04.595Z,1.67
2023-03-24T14:24:35.674Z,2.10
2023-03-24T14:27:23.749Z,1.90
2023-03-24T14:29:54.649Z,2.25
2023-03-24T14:32:23.702Z,1.92
2023-03-24T14:34:55.904Z,2.00
2023-03-24T14:37:25.631Z,2.22
2023-03-24T14:39:58.424Z,2.35
2023-03-24T14:42:58.351Z,2.20
2023-03-24T14:45:55.689Z,2.70
2023-03-24T14:48:44.886Z,2.08
2023-03-24T14:51:43.522Z,2.30
2023-03-24T14:54:17.553Z,2.00
2023-03-24T14:56:53.167Z,2.28
2023-03-24T14:59:34.568Z,1.80
2023-03-24T15:02:19.639Z,2.17
2023-03-24T15:05:22.632Z,1.98
2023-03-24T15:08:18.435Z,2.03
2023-03-24T15:10:52.194Z,1.75
2023-03-24T15:13:32.709Z,1.52
2023-03-24T15:16:03.010Z,2.10
2023-03-24T15:18:31.647Z,1.63
2023-03-24T15:21:00.837Z,1.60
2023-03-24T15:23:29.764Z,1.63
2023-03-24T15:25:58.466Z,1.67
2023-03-24T15:28:30.613Z,1.60
2023-03-24T15:31:00.264Z,1.40
2023-03-24T15:33:31.063Z,1.90
2023-03-24T15:36:02.578Z,1.20
2023-03-24T15:38:33.784Z,1.50
2023-03-24T15:41:04.400Z,1.40
2023-03-24T15:43:34.243Z,1.35
2023-03-24T15:46:12.313Z,1.58
2023-03-24T15:48:42.347Z,1.25
2023-03-24T15:51:12.772Z,1.33
2023-03-24T15:53:44.561Z,1.70
2023-03-24T15:56:20.645Z,1.02
2023-03-24T15:58:53.741Z,1.60
2023-03-24T16:01:31.627Z,1.23
2023-03-24T16:04:02.389Z,1.50
2023-03-24T16:06:35.515Z,1.10
2023-03-24T16:09:08.735Z,1.15
2023-03-24T16:11:39.475Z,1.15
2023-03-24T16:14:22.241Z,1.08
2023-03-24T16:16:53.966Z,1.08
2023-03-24T16:19:22.409Z,1.75
2023-03-24T16:21:50.985Z,1.55
2023-03-24T16:24:19.159Z,1.67
2023-03-24T16:26:48.360Z,1.15
2023-03-24T16:32:46.245Z,1.50
2023-03-24T16:35:15.166Z,1.23
2023-03-24T16:37:43.622Z,1.38
2023-03-24T16:40:26.835Z,1.88
2023-03-24T16:42:59.391Z,1.35
2023-03-24T16:45:40.352Z,1.45
2023-03-24T16:48:11.143Z,1.80
2023-03-24T16:50:42.458Z,1.13
2023-03-24T16:53:11.813Z,1.25
2023-03-24T16:55:41.968Z,1.60
2023-03-24T16:58:13.197Z,2.05
2023-03-24T17:00:45.836Z,1.33
2023-03-24T17:03:14.811Z,1.58
2023-03-24T17:05:46.561Z,1.42
2023-03-24T17:08:15.048Z,1.25
2023-03-24T17:10:44.890Z,1.40
2023-03-24T17:13:19.404Z,1.30
2023-03-24T17:15:48.979Z,2.22
2023-03-24T17:18:17.944Z,1.83
2023-03-24T17:20:47.284Z,1.20
2023-03-24T17:23:18.575Z,3.08
2023-03-24T17:25:47.238Z,0.90
2023-03-24T17:28:16.872Z,0.77
2023-03-24T17:30:45.465Z,1.88
2023-03-24T17:33:17.487Z,1.10
2023-03-24T17:35:46.901Z,1.17
2023-03-24T17:38:16.629Z,1.08
2023-03-24T17:40:46.625Z,1.20
2023-03-24T17:43:15.559Z,1.10
2023-03-24T17:45:44.000Z,1.10
2023-03-24T17:48:16.816Z,0.82
2023-03-24T17:50:45.068Z,1.10
2023-03-24T17:53:14.263Z,0.80
2023-03-24T17:55:42.729Z,1.15
2023-03-24T17:58:11.680Z,1.00
2023-03-24T18:00:41.503Z,0.93
2023-03-24T18:03:09.917Z,1.23
2023-03-24T18:05:40.464Z,0.75
2023-03-24T18:08:08.809Z,0.88
2023-03-24T18:10:37.597Z,1.08
2023-03-24T18:13:07.274Z,1.17
2023-03-24T18:15:36.655Z,0.90
2023-03-24T18:18:05.162Z,1.20
2023-03-24T18:20:33.494Z,1.20
2023-03-24T18:23:04.446Z,0.90
2023-03-24T18:25:33.791Z,1.05
2023-03-24T18:28:02.577Z,1.05
2023-03-24T18:30:32.259Z,1.15
2023-03-24T18:33:04.111Z,0.70
2023-03-24T18:35:32.631Z,1.10
2023-03-24T18:38:02.517Z,1.10
2023-03-24T18:40:31.193Z,0.68
2023-03-24T18:42:59.465Z,0.80
2023-03-24T18:45:28.143Z,1.17
2023-03-24T18:47:56.557Z,0.90
2023-03-24T18:50:25.176Z,1.17
2023-03-24T18:52:57.204Z,1.40
2023-03-24T18:55:30.550Z,1.35
2023-03-24T18:57:59.363Z,1.48
2023-03-24T19:00:27.954Z,0.90
2023-03-24T19:02:59.992Z,1.10
2023-03-24T19:05:33.660Z,1.08
2023-03-24T19:08:07.347Z,0.80
2023-03-24T19:10:38.179Z,1.25
2023-03-24T19:13:07.414Z,0.90
2023-03-24T19:15:36.363Z,0.90
2023-03-24T19:18:05.465Z,0.90
2023-03-24T19:20:34.998Z,0.77
2023-03-24T19:23:05.332Z,0.98
2023-03-24T19:25:34.824Z,0.65
2023-03-24T19:28:04.920Z,0.80
2023-03-24T19:30:33.180Z,0.70
2023-03-24T19:33:01.463Z,0.40
2023-03-24T19:35:30.747Z,0.60
2023-03-24T19:37:59.561Z,0.60
2023-03-24T19:40:28.248Z,0.52
2023-03-24T19:42:56.747Z,0.75
2023-03-24T19:45:29.539Z,0.98
2023-03-24T19:47:57.889Z,0.77
2023-03-24T19:50:26.387Z,0.50
2023-03-24T19:52:55.724Z,0.40
2023-03-24T19:55:25.485Z,0.40
2023-03-24T19:58:00.177Z,0.45
2023-03-24T20:00:31.232Z,0.30
2023-03-24T20:02:59.844Z,0.25
2023-03-24T20:05:28.263Z,0.40
2023-03-24T20:07:59.750Z,0.30
2023-03-24T20:10:29.106Z,0.60
2023-03-24T20:12:58.050Z,0.30
2023-03-24T20:15:26.360Z,0.50
2023-03-24T20:17:56.013Z,0.30
2023-03-24T20:20:24.727Z,0.40
2023-03-24T20:22:53.017Z,0.40
2023-03-24T20:25:22.387Z,0.70
2023-03-24T20:27:50.797Z,0.40
2023-03-24T20:30:20.754Z,0.35
2023-03-24T20:32:56.341Z,0.40
2023-03-24T20:35:28.020Z,0.50
2023-03-24T20:37:56.472Z,0.43
2023-03-24T20:40:25.718Z,0.60
2023-03-24T20:42:54.445Z,0.60
2023-03-24T20:45:22.721Z,0.50
2023-03-24T20:47:53.823Z,0.30
2023-03-24T20:50:22.482Z,0.47
2023-03-24T20:52:52.251Z,0.57
2023-03-24T20:55:20.498Z,0.40
2023-03-24T21:01:08.334Z,0.50
2023-03-24T21:03:37.375Z,0.60
2023-03-24T21:06:06.668Z,0.50
2023-03-24T21:08:37.626Z,0.40
2023-03-24T21:11:06.116Z,0.60
2023-03-24T21:13:37.674Z,0.52
2023-03-24T21:16:08.604Z,0.40
2023-03-24T21:18:38.305Z,0.70
2023-03-24T21:21:07.079Z,0.40
2023-03-24T21:23:39.263Z,0.80
2023-03-24T21:26:10.666Z,0.70
2023-03-24T21:28:39.767Z,0.52
2023-03-24T21:31:12.671Z,0.50
2023-03-24T21:33:43.564Z,0.50
2023-03-24T21:36:12.902Z,0.82
2023-03-24T21:38:42.950Z,0.73
2023-03-24T21:41:12.064Z,0.68
2023-03-24T21:43:40.999Z,0.45
2023-03-24T21:46:20.591Z,0.60
2023-03-24T21:48:51.852Z,1.05
2023-03-24T21:51:24.011Z,0.68
2023-03-24T21:53:56.010Z,0.75
2023-03-24T21:56:24.729Z,1.10
2023-03-24T21:58:54.547Z,0.70
2023-03-24T22:01:23.571Z,0.75
2023-03-24T22:03:54.378Z,0.50
2023-03-24T22:06:23.734Z,0.80
2023-03-24T22:08:58.810Z,0.77
2023-03-24T22:11:27.385Z,1.05
2023-03-24T22:13:55.907Z,0.90
2023-03-24T22:16:24.473Z,0.88
2023-03-24T22:18:54.168Z,0.85
2023-03-24T22:21:22.488Z,0.90
2023-03-24T22:23:50.837Z,0.90
2023-03-24T22:26:27.303Z,1.08
2023-03-24T22:28:57.509Z,1.00
2023-03-24T22:31:26.517Z,0.80
2023-03-24T22:33:57.143Z,1.05
2023-03-24T22:36:25.891Z,0.73
2023-03-24T22:38:54.093Z,0.95
2023-03-24T22:41:24.999Z,0.60
2023-03-24T22:43:53.634Z,1.05
2023-03-24T22:46:24.385Z,1.10
2023-03-24T22:48:53.048Z,0.63
2023-03-24T22:51:22.590Z,0.85
2023-03-24T22:53:51.453Z,0.68
2023-03-24T22:56:19.768Z,0.82
2023-03-24T22:58:49.669Z,0.70
2023-03-24T23:01:18.417Z,0.80
2023-03-24T23:03:46.834Z,0.90
2023-03-24T23:06:15.933Z,1.00
2023-03-24T23:08:45.016Z,0.95
2023-03-24T23:11:13.417Z,0.80
2023-03-24T23:13:41.812Z,0.75
2023-03-24T23:16:11.588Z,1.02
2023-03-24T23:18:40.948Z,0.70
2023-03-24T23:21:11.778Z,0.50
2023-03-24T23:23:41.867Z,0.80
2023-03-24T23:26:25.306Z,0.80
2023-03-24T23:28:58.575Z,0.75
2023-03-24T23:31:29.680Z,0.77
2023-03-24T23:33:59.246Z,0.73
2023-03-24T23:36:40.069Z,0.57
2023-03-24T23:39:09.183Z,0.60
2023-03-24T23:41:37.421Z,0.73
2023-03-24T23:44:06.023Z,0.68
2023-03-24T23:46:36.132Z,0.80
2023-03-24T23:49:04.415Z,0.80
2023-03-24T23:51:32.660Z,0.77
2023-03-24T23:54:01.356Z,0.50
2023-03-24T23:56:30.541Z,0.70
2023-03-24T23:58:59.048Z,0.80
